aviador You're here:

UWGG Decoded Metar

NIZHNY NOVGOROD in RUSSIA
Report Time2018-06-18 19:00:00
UTC Time2018-06-18 19:13:23
Flight Rules vfr VFR
WindCalm
Visibility9999 m
Phenomena:N/A
Clouds:N/A
Expected CloudBase > 2,000 ft AGL from Temp-Dew spread
CeilingNone
Temp18°C (ISA +3)
Dew Point13°C (73% RH)
QNH1013 hPa
Density Alt850 ft
Elevation240 ft
Report Wrong Elevation
Raw Report
METAR UWGG 181900Z 00000MPS CAVOK 18/13 Q1013 R36R/090070 NOSIG=

Extra information for UWGG:More info

Metar Taf Metar & Taf Last 4 Metars F.Rules Stats Wind Profile Meteogram Temp Stats Airport Information Weather charts Add Link Nearby VenuesMetar ALERT Operation Metar Decoded Social comments